Antioch, South Carolina
Current Conditions -  °F | °C
As of 6:35 AM on Wednesday 26 Nov 2014 (Local Time) from KCDN Reporting Station
Light Rain Light Rain  
Wind Chill: 41°   Ceiling: 4200
Heat Index: 46°   Visibility: 5mi
Dew Point: 46°   Wind: 13mph
Humidity: 100%   Direction: 350°N
Pressure: 29.93"   Gusts: 18mph
Location:  34.2974°N, 80.6089°W
Report Text: KCDN 261135Z AUTO 35011G16KT 5SM -RA FEW021 SCT034 BKN042 08/08 A2993 RMK AO2 P0003 TSNO
Loading
Personal Weather Stations






























Interactive Weather Map New forecast layout! Learn more

10-Day Weather Forecast

Advertisements
Track Severe Weather on mobile